createdAt,value
2023-02-11T00:00:27.331Z,12.90
2023-02-11T00:01:27.510Z,12.20
2023-02-11T00:02:27.354Z,13.10
2023-02-11T00:03:27.370Z,13.40
2023-02-11T00:04:27.281Z,13.00
2023-02-11T00:05:27.280Z,13.40
2023-02-11T00:06:27.271Z,12.90
2023-02-11T00:07:27.248Z,12.90
2023-02-11T00:08:27.231Z,12.30
2023-02-11T00:09:27.230Z,13.10
2023-02-11T00:10:27.215Z,13.00
2023-02-11T00:11:27.368Z,12.70
2023-02-11T00:12:27.194Z,13.00
2023-02-11T00:13:27.168Z,12.70
2023-02-11T00:14:27.160Z,12.70
2023-02-11T00:15:27.146Z,12.00
2023-02-11T00:16:27.196Z,13.40
2023-02-11T00:17:27.288Z,12.90
2023-02-11T00:18:27.109Z,13.30
2023-02-11T00:19:27.089Z,12.60
2023-02-11T00:20:27.080Z,13.30
2023-02-11T00:21:27.167Z,13.10
2023-02-11T00:22:27.225Z,13.30
2023-02-11T00:23:27.212Z,13.40
2023-02-11T00:24:27.027Z,14.20
2023-02-11T00:25:27.023Z,13.10
2023-02-11T00:26:27.003Z,12.90
2023-02-11T00:27:26.992Z,12.60
2023-02-11T00:28:27.221Z,12.40
2023-02-11T00:29:26.955Z,12.60
2023-02-11T00:30:27.152Z,12.40
2023-02-11T00:31:27.030Z,12.50
2023-02-11T00:32:26.924Z,12.40
2023-02-11T00:33:26.902Z,12.60
2023-02-11T00:34:26.901Z,13.00
2023-02-11T00:35:27.051Z,12.60
2023-02-11T00:36:26.870Z,12.50
2023-02-11T00:37:26.843Z,12.30
2023-02-11T00:38:26.841Z,13.20
2023-02-11T00:39:26.830Z,12.60
2023-02-11T00:40:26.985Z,12.30
2023-02-11T00:41:26.813Z,12.10
2023-02-11T00:42:26.957Z,12.80
2023-02-11T00:43:26.794Z,12.70
2023-02-11T00:44:26.769Z,13.00
2023-02-11T00:45:26.764Z,12.90
2023-02-11T00:46:26.830Z,12.40
2023-02-11T00:47:26.906Z,12.90
2023-02-11T00:48:26.707Z,12.80
2023-02-11T00:49:26.692Z,13.10
2023-02-11T00:50:26.684Z,11.30
2023-02-11T00:51:26.697Z,11.20
2023-02-11T00:52:26.836Z,12.20
2023-02-11T00:53:26.639Z,12.10
2023-02-11T00:54:29.660Z,11.80
2023-02-11T00:55:26.604Z,12.60
2023-02-11T00:56:26.595Z,12.90
2023-02-11T00:57:26.592Z,11.60
2023-02-11T00:58:26.772Z,13.00
2023-02-11T00:59:26.563Z,12.50
2023-02-11T01:00:26.544Z,12.50
2023-02-11T01:01:26.580Z,12.40
2023-02-11T01:02:26.531Z,12.20
2023-02-11T01:03:26.692Z,11.80
2023-02-11T01:04:26.673Z,11.90
2023-02-11T01:05:26.538Z,12.50
2023-02-11T01:06:26.474Z,12.60
2023-02-11T01:07:26.456Z,11.50
2023-02-11T01:08:26.626Z,12.20
2023-02-11T01:09:26.603Z,11.30
2023-02-11T01:10:26.415Z,12.10
2023-02-11T01:11:26.423Z,11.90
2023-02-11T01:12:26.416Z,11.50
2023-02-11T01:13:26.374Z,12.00
2023-02-11T01:14:26.371Z,11.80
2023-02-11T01:15:26.354Z,11.50
2023-02-11T01:16:26.418Z,11.30
2023-02-11T01:17:26.543Z,10.90
2023-02-11T01:18:26.495Z,12.00
2023-02-11T01:19:26.314Z,12.10
2023-02-11T01:20:26.303Z,11.50
2023-02-11T01:21:26.283Z,11.30
2023-02-11T01:22:26.263Z,11.40
2023-02-11T01:23:26.425Z,10.90
2023-02-11T01:24:26.233Z,12.20
2023-02-11T01:25:26.232Z,11.10
2023-02-11T01:26:26.212Z,10.80
2023-02-11T01:27:26.212Z,12.50
2023-02-11T01:28:26.438Z,11.70
2023-02-11T01:29:26.171Z,10.80
2023-02-11T01:30:26.169Z,11.00
2023-02-11T01:31:26.161Z,11.10
2023-02-11T01:32:26.132Z,11.20
2023-02-11T01:33:26.296Z,11.70
2023-02-11T01:34:26.132Z,11.50
2023-02-11T01:35:26.091Z,10.30
2023-02-11T01:36:26.082Z,11.10
2023-02-11T01:37:26.072Z,10.70
2023-02-11T01:38:26.069Z,10.30
2023-02-11T01:39:26.079Z,11.40
2023-02-11T01:40:26.032Z,11.70
2023-02-11T01:41:26.053Z,11.50
2023-02-11T01:42:26.007Z,10.50
2023-02-11T01:43:25.998Z,11.00
2023-02-11T01:44:26.004Z,10.30
2023-02-11T01:45:25.959Z,10.70
2023-02-11T01:46:25.988Z,10.60
2023-02-11T01:47:25.939Z,10.50
2023-02-11T01:48:25.927Z,11.00
2023-02-11T01:49:25.962Z,10.40
2023-02-11T01:50:25.904Z,10.40
2023-02-11T01:51:25.878Z,10.70
2023-02-11T01:52:25.874Z,10.60
2023-02-11T01:53:25.851Z,10.90
2023-02-11T01:54:25.885Z,9.10
2023-02-11T01:55:25.841Z,10.40
2023-02-11T01:56:25.856Z,11.00
2023-02-11T01:57:25.809Z,10.30
2023-02-11T01:58:25.798Z,10.20
2023-02-11T01:59:25.810Z,10.50
2023-02-11T02:00:25.780Z,10.70
2023-02-11T02:01:25.782Z,10.40
2023-02-11T02:02:25.736Z,10.00
2023-02-11T02:03:25.838Z,10.60
2023-02-11T02:04:25.724Z,10.00
2023-02-11T02:05:25.874Z,10.90
2023-02-11T02:06:25.703Z,10.10
2023-02-11T02:07:25.674Z,10.70
2023-02-11T02:08:25.695Z,9.90
2023-02-11T02:09:25.650Z,11.00
2023-02-11T02:10:25.823Z,10.50
2023-02-11T02:11:25.624Z,10.20
2023-02-11T02:12:25.611Z,10.70
2023-02-11T02:13:25.604Z,10.70
2023-02-11T02:14:25.580Z,10.50
2023-02-11T02:15:25.582Z,10.30
2023-02-11T02:16:25.598Z,10.10
2023-02-11T02:17:25.540Z,10.20
2023-02-11T02:18:25.537Z,11.00
2023-02-11T02:19:25.507Z,10.70
2023-02-11T02:20:25.691Z,11.70
2023-02-11T02:21:25.658Z,11.10
2023-02-11T02:22:25.485Z,10.50
2023-02-11T02:23:25.462Z,10.70
2023-02-11T02:24:25.450Z,10.90
2023-02-11T02:25:25.426Z,10.00
2023-02-11T02:26:25.432Z,10.70
2023-02-11T02:27:25.413Z,10.60
2023-02-11T02:28:25.473Z,10.60
2023-02-11T02:29:25.395Z,10.80
2023-02-11T02:30:25.438Z,10.50
2023-02-11T02:31:25.573Z,11.20
2023-02-11T02:32:25.353Z,10.90
2023-02-11T02:33:25.344Z,10.80
2023-02-11T02:34:25.312Z,11.00
2023-02-11T02:35:25.303Z,10.60
2023-02-11T02:36:25.297Z,11.10
2023-02-11T02:37:25.455Z,10.20
2023-02-11T02:38:25.261Z,11.70
2023-02-11T02:39:25.262Z,11.00
2023-02-11T02:40:25.240Z,10.50
2023-02-11T02:41:25.220Z,11.30
2023-02-11T02:42:25.403Z,10.70
2023-02-11T02:43:25.197Z,10.70
2023-02-11T02:44:25.198Z,10.90
2023-02-11T02:45:25.173Z,11.10
2023-02-11T02:46:25.224Z,11.50
2023-02-11T02:47:25.152Z,10.70
2023-02-11T02:48:25.133Z,10.90
2023-02-11T02:49:25.132Z,10.90
2023-02-11T02:50:25.120Z,11.40
2023-02-11T02:51:25.283Z,11.50
2023-02-11T02:52:25.086Z,10.70
2023-02-11T02:53:25.071Z,11.30
2023-02-11T02:54:25.059Z,11.10
2023-02-11T02:55:25.045Z,11.00
2023-02-11T02:56:25.029Z,11.90
2023-02-11T02:57:25.208Z,11.00
2023-02-11T02:58:24.999Z,11.40
2023-02-11T02:59:25.006Z,10.80
2023-02-11T03:00:24.970Z,11.40
2023-02-11T03:01:25.170Z,12.60
2023-02-11T03:02:24.951Z,11.50
2023-02-11T03:03:24.991Z,10.20
2023-02-11T03:04:24.932Z,10.80
2023-02-11T03:05:24.922Z,10.90
2023-02-11T03:06:24.918Z,11.20
2023-02-11T03:07:24.902Z,10.40
2023-02-11T03:08:24.894Z,11.10
2023-02-11T03:09:24.869Z,10.80
2023-02-11T03:10:24.878Z,11.70
2023-02-11T03:11:24.847Z,11.00
2023-02-11T03:12:24.988Z,10.60
2023-02-11T03:13:24.816Z,10.50
2023-02-11T03:14:24.798Z,10.90
2023-02-11T03:15:24.788Z,10.30
2023-02-11T03:16:24.791Z,11.10
2023-02-11T03:17:24.942Z,10.80
2023-02-11T03:18:24.911Z,10.50
2023-02-11T03:19:24.742Z,11.00
2023-02-11T03:20:24.911Z,10.80
2023-02-11T03:21:24.696Z,10.40
2023-02-11T03:22:24.696Z,9.90
2023-02-11T03:23:24.676Z,11.00
2023-02-11T03:24:24.666Z,11.30
2023-02-11T03:25:24.827Z,11.40
2023-02-11T03:26:24.632Z,11.30
2023-02-11T03:27:24.625Z,10.70
2023-02-11T03:28:24.656Z,10.50
2023-02-11T03:29:24.594Z,10.80
2023-02-11T03:30:24.844Z,11.20
2023-02-11T03:31:24.707Z,10.20
2023-02-11T03:32:24.553Z,10.30
2023-02-11T03:33:24.556Z,10.60
2023-02-11T03:34:24.526Z,10.70
2023-02-11T03:35:24.709Z,10.60
2023-02-11T03:36:24.515Z,9.90
2023-02-11T03:37:24.505Z,9.90
2023-02-11T03:38:24.485Z,11.40
2023-02-11T03:39:24.470Z,9.80
2023-02-11T03:40:24.622Z,9.70
2023-02-11T03:41:24.444Z,10.50
2023-02-11T03:42:24.434Z,9.90
2023-02-11T03:43:24.413Z,9.70
2023-02-11T03:44:24.589Z,11.10
2023-02-11T03:45:24.396Z,9.30
2023-02-11T03:46:24.467Z,10.20
2023-02-11T03:47:24.369Z,9.70
2023-02-11T03:48:24.351Z,10.30
2023-02-11T03:49:24.523Z,10.20
2023-02-11T03:50:24.515Z,10.40
2023-02-11T03:51:24.380Z,10.20
2023-02-11T03:52:24.340Z,10.00
2023-02-11T03:53:24.283Z,10.30
2023-02-11T03:54:24.285Z,9.50
2023-02-11T03:55:24.576Z,11.20
2023-02-11T03:56:24.250Z,8.90
2023-02-11T03:57:24.234Z,10.20
2023-02-11T03:58:24.233Z,10.40
2023-02-11T03:59:24.196Z,10.30
2023-02-11T04:00:24.209Z,10.70
2023-02-11T04:01:24.422Z,10.70
2023-02-11T04:02:24.180Z,11.10
2023-02-11T04:03:24.152Z,10.70
2023-02-11T04:04:24.144Z,11.00
2023-02-11T04:05:24.127Z,10.80
2023-02-11T04:06:24.288Z,10.10
2023-02-11T04:07:24.099Z,10.70
2023-02-11T04:08:24.097Z,10.80
2023-02-11T04:09:24.075Z,10.90
2023-02-11T04:10:24.057Z,10.30
2023-02-11T04:11:24.227Z,10.40
2023-02-11T04:12:24.036Z,11.10
2023-02-11T04:13:24.016Z,11.00
2023-02-11T04:14:24.005Z,10.80
2023-02-11T04:15:24.032Z,10.90
2023-02-11T04:16:24.215Z,10.40
2023-02-11T04:17:24.137Z,10.20
2023-02-11T04:18:23.966Z,11.60
2023-02-11T04:19:23.964Z,10.70
2023-02-11T04:20:23.934Z,11.60
2023-02-11T04:21:23.914Z,12.30
2023-02-11T04:22:23.905Z,11.10
2023-02-11T04:23:23.891Z,11.50
2023-02-11T04:24:24.051Z,11.00
2023-02-11T04:25:23.865Z,11.80
2023-02-11T04:26:23.864Z,11.50
2023-02-11T04:27:23.840Z,10.60
2023-02-11T04:28:23.840Z,11.70
2023-02-11T04:29:24.004Z,11.50
2023-02-11T04:30:23.805Z,11.40
2023-02-11T04:31:23.865Z,11.50
2023-02-11T04:32:23.768Z,12.00
2023-02-11T04:33:23.761Z,11.60
2023-02-11T04:34:23.758Z,11.80
2023-02-11T04:35:23.906Z,12.00
2023-02-11T04:36:23.711Z,11.10
2023-02-11T04:37:23.720Z,12.00
2023-02-11T04:38:23.692Z,12.10
2023-02-11T04:39:23.683Z,11.70
2023-02-11T04:40:23.877Z,12.20
2023-02-11T04:41:23.660Z,11.60
2023-02-11T04:42:23.640Z,11.30
2023-02-11T04:43:23.630Z,12.10
2023-02-11T04:44:23.620Z,12.10
2023-02-11T04:45:23.813Z,11.60
2023-02-11T04:46:23.617Z,11.30
2023-02-11T04:47:23.751Z,11.80
2023-02-11T04:48:23.570Z,11.30
2023-02-11T04:49:23.552Z,11.70
2023-02-11T04:50:23.537Z,12.20
2023-02-11T04:51:23.530Z,11.60
2023-02-11T04:52:23.698Z,11.80
2023-02-11T04:53:23.498Z,11.90
2023-02-11T04:54:23.485Z,12.00
2023-02-11T04:55:23.475Z,11.70
2023-02-11T04:56:23.471Z,12.30
2023-02-11T04:57:23.627Z,11.40
2023-02-11T04:58:23.428Z,12.80
2023-02-11T04:59:23.426Z,11.20
2023-02-11T05:00:23.407Z,11.80
2023-02-11T05:01:23.451Z,11.90
2023-02-11T05:02:23.566Z,12.00
2023-02-11T05:03:23.366Z,12.30
2023-02-11T05:04:23.400Z,11.20
2023-02-11T05:05:23.335Z,12.00
2023-02-11T05:06:23.330Z,10.60
2023-02-11T05:07:23.498Z,12.00
2023-02-11T05:08:23.294Z,11.50
2023-02-11T05:09:23.465Z,11.70
2023-02-11T05:10:23.273Z,11.90
2023-02-11T05:11:23.274Z,11.60
2023-02-11T05:12:23.253Z,11.10
2023-02-11T05:13:23.241Z,11.40
2023-02-11T05:14:23.396Z,11.90
2023-02-11T05:15:23.212Z,12.20
2023-02-11T05:16:23.252Z,11.40
2023-02-11T05:17:23.184Z,11.80
2023-02-11T05:18:23.170Z,12.20
2023-02-11T05:19:23.171Z,11.30
2023-02-11T05:20:23.144Z,11.60
2023-02-11T05:21:23.145Z,11.50
2023-02-11T05:22:23.125Z,12.60
2023-02-11T05:23:23.110Z,11.20
2023-02-11T05:24:23.284Z,11.40
2023-02-11T05:25:23.071Z,11.40
2023-02-11T05:26:23.059Z,12.10
2023-02-11T05:27:23.229Z,11.50
2023-02-11T05:28:23.161Z,12.40
2023-02-11T05:29:23.028Z,12.10
2023-02-11T05:30:23.200Z,11.90
2023-02-11T05:31:23.002Z,12.70
2023-02-11T05:32:22.992Z,12.00
2023-02-11T05:33:22.979Z,13.30
2023-02-11T05:34:22.946Z,12.80
2023-02-11T05:35:23.209Z,11.90
2023-02-11T05:36:22.942Z,12.10
2023-02-11T05:37:22.965Z,12.70
2023-02-11T05:38:23.101Z,13.20
2023-02-11T05:39:22.900Z,13.30
2023-02-11T05:40:22.882Z,13.10
2023-02-11T05:41:22.887Z,12.10
2023-02-11T05:42:22.857Z,12.80
2023-02-11T05:43:22.867Z,12.80
2023-02-11T05:44:23.010Z,12.90
2023-02-11T05:45:22.830Z,13.30
2023-02-11T05:46:22.868Z,12.80
2023-02-11T05:47:22.794Z,13.10
2023-02-11T05:48:22.781Z,14.00
2023-02-11T05:49:22.957Z,12.70
2023-02-11T05:50:22.755Z,12.60
2023-02-11T05:51:22.745Z,12.10
2023-02-11T05:52:22.737Z,13.50
2023-02-11T05:53:22.726Z,13.70
2023-02-11T05:54:22.885Z,13.20
2023-02-11T05:55:22.688Z,13.30
2023-02-11T05:56:22.882Z,12.90
2023-02-11T05:57:22.669Z,13.10
2023-02-11T05:58:22.653Z,13.80
2023-02-11T05:59:22.631Z,13.10
2023-02-11T06:00:22.631Z,13.20
2023-02-11T06:01:22.609Z,13.00
2023-02-11T06:02:22.816Z,12.50
2023-02-11T06:03:22.803Z,14.30
2023-02-11T06:04:22.571Z,13.10
2023-02-11T06:05:22.565Z,12.90
2023-02-11T06:06:22.557Z,12.50
2023-02-11T06:07:22.533Z,13.10
2023-02-11T06:08:22.532Z,13.70
2023-02-11T06:09:22.499Z,14.10
2023-02-11T06:10:22.495Z,13.20
2023-02-11T06:11:22.480Z,13.50
2023-02-11T06:12:22.471Z,13.80
2023-02-11T06:13:22.453Z,14.10
2023-02-11T06:14:22.634Z,13.30
2023-02-11T06:15:22.423Z,14.20
2023-02-11T06:16:22.462Z,13.70
2023-02-11T06:17:22.398Z,13.60
2023-02-11T06:18:22.386Z,13.70
2023-02-11T06:19:22.549Z,13.30
2023-02-11T06:20:22.357Z,14.00
2023-02-11T06:21:23.883Z,13.90
2023-02-11T06:22:22.329Z,14.10
2023-02-11T06:23:22.340Z,13.80
2023-02-11T06:24:44.321Z,14.20
2023-02-11T06:25:23.286Z,13.80
2023-02-11T06:26:22.463Z,13.80
2023-02-11T06:27:22.256Z,14.20
2023-02-11T06:28:22.339Z,13.40
2023-02-11T06:29:22.238Z,14.50
2023-02-11T06:30:22.227Z,13.90
2023-02-11T06:31:22.453Z,14.10
2023-02-11T06:32:42.214Z,13.40
2023-02-11T06:33:23.364Z,13.30
2023-02-11T06:34:22.177Z,14.30
2023-02-11T06:35:23.118Z,14.20
2023-02-11T06:36:22.164Z,13.60
2023-02-11T06:37:22.138Z,14.70
2023-02-11T06:38:22.310Z,14.00
2023-02-11T06:39:22.117Z,14.20
2023-02-11T06:40:22.115Z,14.80
2023-02-11T06:41:22.088Z,14.10
2023-02-11T06:42:22.080Z,13.50
2023-02-11T06:43:22.053Z,13.60
2023-02-11T06:44:22.223Z,13.80
2023-02-11T06:45:22.024Z,13.90
2023-02-11T06:46:22.311Z,14.40
2023-02-11T06:47:22.014Z,14.20
2023-02-11T06:48:22.005Z,13.70
2023-02-11T06:49:21.993Z,14.90
2023-02-11T06:50:21.965Z,14.60
2023-02-11T06:51:21.956Z,14.20
2023-02-11T06:52:21.975Z,14.30
2023-02-11T06:53:21.930Z,14.10
2023-02-11T06:54:21.935Z,14.20
2023-02-11T06:55:21.902Z,14.50
2023-02-11T06:56:21.912Z,13.70
2023-02-11T06:57:21.885Z,14.00
2023-02-11T06:58:21.872Z,14.20
2023-02-11T06:59:21.851Z,13.90
2023-02-11T07:00:21.832Z,14.40
2023-02-11T07:01:21.860Z,15.10
2023-02-11T07:02:21.821Z,14.10
2023-02-11T07:03:21.799Z,15.00
2023-02-11T07:04:21.794Z,14.60
2023-02-11T07:05:21.950Z,13.90
2023-02-11T07:06:21.769Z,14.80
2023-02-11T07:07:21.740Z,14.50
2023-02-11T07:08:21.773Z,14.60
2023-02-11T07:09:21.722Z,14.90
2023-02-11T07:10:21.721Z,15.10
2023-02-11T07:11:21.869Z,14.70
2023-02-11T07:12:21.678Z,14.50
2023-02-11T07:13:21.658Z,15.10
2023-02-11T07:14:21.657Z,15.00
2023-02-11T07:15:21.730Z,15.10
2023-02-11T07:16:21.711Z,16.20
2023-02-11T07:17:21.609Z,15.30
2023-02-11T07:18:21.607Z,14.70
2023-02-11T07:19:21.585Z,15.20
2023-02-11T07:20:21.566Z,16.00
2023-02-11T07:21:21.746Z,14.90
2023-02-11T07:22:21.548Z,16.30
2023-02-11T07:23:21.697Z,15.30
2023-02-11T07:24:21.516Z,14.80
2023-02-11T07:25:21.509Z,14.90
2023-02-11T07:26:21.501Z,15.40
2023-02-11T07:27:21.484Z,16.00
2023-02-11T07:28:22.231Z,16.40
2023-02-11T07:29:21.482Z,16.30
2023-02-11T07:30:21.445Z,15.60
2023-02-11T07:31:21.755Z,15.90
2023-02-11T07:32:21.425Z,15.10
2023-02-11T07:33:21.394Z,16.40
2023-02-11T07:34:21.417Z,15.90
2023-02-11T07:35:21.386Z,15.70
2023-02-11T07:36:21.585Z,15.80
2023-02-11T07:37:21.342Z,15.60
2023-02-11T07:38:21.348Z,16.70
2023-02-11T07:39:21.331Z,16.30
2023-02-11T07:40:21.322Z,16.10
2023-02-11T07:41:21.291Z,16.50
2023-02-11T07:42:21.290Z,16.80
2023-02-11T07:43:21.260Z,16.20
2023-02-11T07:44:21.281Z,15.80
2023-02-11T07:45:21.240Z,15.80
2023-02-11T07:46:21.316Z,16.10
2023-02-11T07:47:21.219Z,15.60
2023-02-11T07:48:21.212Z,16.20
2023-02-11T07:49:21.206Z,16.40
2023-02-11T07:50:21.196Z,16.30
2023-02-11T07:51:21.174Z,16.80
2023-02-11T07:52:21.148Z,16.30
2023-02-11T07:53:21.146Z,16.90
2023-02-11T07:54:21.130Z,16.80
2023-02-11T07:55:21.138Z,16.80
2023-02-11T07:56:21.106Z,17.00
2023-02-11T07:57:21.089Z,16.10
2023-02-11T07:58:21.086Z,16.60
2023-02-11T07:59:21.060Z,15.80
2023-02-11T08:00:21.340Z,15.40
2023-02-11T08:01:21.248Z,16.90
2023-02-11T08:02:21.062Z,16.60
2023-02-11T08:03:21.023Z,16.00
2023-02-11T08:04:20.995Z,17.00
2023-02-11T08:05:20.978Z,16.50
2023-02-11T08:06:21.174Z,16.20
2023-02-11T08:07:20.954Z,16.80
2023-02-11T08:08:20.963Z,16.60
2023-02-11T08:09:20.932Z,16.50
2023-02-11T08:10:20.923Z,15.80
2023-02-11T08:11:20.911Z,16.80
2023-02-11T08:12:20.933Z,15.10
2023-02-11T08:13:20.872Z,16.10
2023-02-11T08:14:20.873Z,16.00
2023-02-11T08:15:20.853Z,17.10
2023-02-11T08:16:21.093Z,16.40
2023-02-11T08:17:20.845Z,16.40
2023-02-11T08:18:21.532Z,16.00
2023-02-11T08:19:20.794Z,16.60
2023-02-11T08:20:20.798Z,15.80
2023-02-11T08:21:20.949Z,15.20
2023-02-11T08:22:20.760Z,16.30
2023-02-11T08:23:20.738Z,16.00
2023-02-11T08:24:20.737Z,15.60
2023-02-11T08:25:20.717Z,16.70
2023-02-11T08:26:20.706Z,17.00
2023-02-11T08:27:20.871Z,17.10
2023-02-11T08:28:20.754Z,15.40
2023-02-11T08:29:20.656Z,14.90
2023-02-11T08:30:20.666Z,17.30
2023-02-11T08:31:20.791Z,16.50
2023-02-11T08:32:20.685Z,15.70
2023-02-11T08:33:20.621Z,15.80
2023-02-11T08:34:20.593Z,16.80
2023-02-11T08:35:20.616Z,17.20
2023-02-11T08:36:20.563Z,16.60
2023-02-11T08:37:20.551Z,16.50
2023-02-11T08:38:20.543Z,16.80
2023-02-11T08:39:21.123Z,15.70
2023-02-11T08:40:20.538Z,17.00
2023-02-11T08:41:20.513Z,17.50
2023-02-11T08:42:20.545Z,15.50
2023-02-11T08:43:20.508Z,16.40
2023-02-11T08:44:20.470Z,17.40
2023-02-11T08:45:20.463Z,17.70
2023-02-11T08:46:20.514Z,17.70
2023-02-11T08:47:20.440Z,17.70
2023-02-11T08:48:20.411Z,17.10
2023-02-11T08:49:20.400Z,17.40
2023-02-11T08:50:20.384Z,16.70
2023-02-11T08:51:20.390Z,17.40
2023-02-11T08:52:20.543Z,17.00
2023-02-11T08:53:20.351Z,16.80
2023-02-11T08:54:20.353Z,17.60
2023-02-11T08:55:20.326Z,17.20
2023-02-11T08:56:20.312Z,16.20
2023-02-11T08:57:20.459Z,17.40
2023-02-11T08:58:20.287Z,18.00
2023-02-11T08:59:20.272Z,17.60
2023-02-11T09:00:20.263Z,18.20
2023-02-11T09:01:22.695Z,17.10
2023-02-11T09:02:20.461Z,17.90
2023-02-11T09:03:20.213Z,17.00
2023-02-11T09:04:20.209Z,17.50
2023-02-11T09:05:20.196Z,16.90
2023-02-11T09:06:20.178Z,17.30
2023-02-11T09:07:20.156Z,17.70
2023-02-11T09:08:20.339Z,17.00
2023-02-11T09:09:20.126Z,17.90
2023-02-11T09:10:20.137Z,17.30
2023-02-11T09:11:20.124Z,17.70
2023-02-11T09:12:20.100Z,17.70
2023-02-11T09:13:20.257Z,16.90
2023-02-11T09:14:20.073Z,17.20
2023-02-11T09:15:20.059Z,16.40
2023-02-11T09:16:20.155Z,17.60
2023-02-11T09:17:20.039Z,16.60
2023-02-11T09:18:20.044Z,17.60
2023-02-11T09:19:20.019Z,16.40
2023-02-11T09:20:20.025Z,17.00
2023-02-11T09:21:19.993Z,17.50
2023-02-11T09:22:19.984Z,17.50
2023-02-11T09:23:19.973Z,16.90
2023-02-11T09:24:19.949Z,16.30
2023-02-11T09:25:19.934Z,17.30
2023-02-11T09:26:19.952Z,17.80
2023-02-11T09:27:19.905Z,17.40
2023-02-11T09:28:20.158Z,16.70
2023-02-11T09:29:19.900Z,17.40
2023-02-11T09:30:19.873Z,17.80
2023-02-11T09:31:20.004Z,18.30
2023-02-11T09:32:19.836Z,17.90
2023-02-11T09:33:19.832Z,17.20
2023-02-11T09:34:19.834Z,17.20
2023-02-11T09:35:19.809Z,17.80
2023-02-11T09:36:19.781Z,17.30
2023-02-11T09:37:19.762Z,17.50
2023-02-11T09:38:20.769Z,18.00
2023-02-11T09:39:19.915Z,17.40
2023-02-11T09:40:19.741Z,17.70
2023-02-11T09:41:19.710Z,16.80
2023-02-11T09:42:19.725Z,16.80
2023-02-11T09:43:19.680Z,17.20
2023-02-11T09:44:19.713Z,18.50
2023-02-11T09:45:19.677Z,17.10
2023-02-11T09:46:19.687Z,16.90
2023-02-11T09:47:19.642Z,17.40
2023-02-11T09:48:19.642Z,17.80
2023-02-11T09:49:19.809Z,17.80
2023-02-11T09:50:19.621Z,17.30
2023-02-11T09:51:19.580Z,18.20
2023-02-11T09:52:19.569Z,18.00
2023-02-11T09:53:19.570Z,18.20
2023-02-11T09:54:19.734Z,17.90
2023-02-11T09:55:19.539Z,18.20
2023-02-11T09:56:19.554Z,17.40
2023-02-11T09:57:28.257Z,17.10
2023-02-11T09:58:20.503Z,18.00
2023-02-11T09:59:19.488Z,16.80
2023-02-11T10:00:19.472Z,18.00
2023-02-11T10:01:21.070Z,17.80
2023-02-11T10:02:19.458Z,17.80
2023-02-11T10:03:19.431Z,17.30
2023-02-11T10:04:19.482Z,17.70
2023-02-11T10:05:19.410Z,17.30
2023-02-11T10:06:19.580Z,17.20
2023-02-11T10:07:19.382Z,17.60
2023-02-11T10:08:19.373Z,17.30
2023-02-11T10:09:19.354Z,18.10
2023-02-11T10:10:19.350Z,19.00
2023-02-11T10:11:30.980Z,16.50
2023-02-11T10:12:20.314Z,17.60
2023-02-11T10:13:19.299Z,16.90
2023-02-11T10:14:19.300Z,18.00
2023-02-11T10:15:19.273Z,17.70
2023-02-11T10:16:19.291Z,16.70
2023-02-11T10:17:19.430Z,16.60
2023-02-11T10:18:19.245Z,17.40
2023-02-11T10:19:19.239Z,18.30
2023-02-11T10:20:19.237Z,18.10
2023-02-11T10:21:19.200Z,17.30
2023-02-11T10:22:19.191Z,19.10
2023-02-11T10:23:19.337Z,18.80
2023-02-11T10:24:19.158Z,17.80
2023-02-11T10:25:19.151Z,17.70
2023-02-11T10:26:19.142Z,17.00
2023-02-11T10:27:19.119Z,17.70
2023-02-11T10:28:19.367Z,17.40
2023-02-11T10:29:19.113Z,17.20
2023-02-11T10:30:19.103Z,17.50
2023-02-11T10:31:19.165Z,17.20
2023-02-11T10:32:19.071Z,17.80
2023-02-11T10:33:19.055Z,16.40
2023-02-11T10:34:19.030Z,17.40
2023-02-11T10:35:19.039Z,16.20
2023-02-11T10:36:19.184Z,16.60
2023-02-11T10:37:18.994Z,16.70
2023-02-11T10:38:19.164Z,16.40
2023-02-11T10:39:18.976Z,16.60
2023-02-11T10:40:19.025Z,17.30
2023-02-11T10:41:18.937Z,17.40
2023-02-11T10:42:18.931Z,17.50
2023-02-11T10:43:18.913Z,16.10
2023-02-11T10:44:18.902Z,16.60
2023-02-11T10:45:18.884Z,16.10
2023-02-11T10:46:18.924Z,16.30
2023-02-11T10:47:18.867Z,16.40
2023-02-11T10:48:18.845Z,15.80
2023-02-11T10:49:18.888Z,16.40
2023-02-11T10:50:18.887Z,17.00
2023-02-11T10:51:18.970Z,16.10
2023-02-11T10:52:18.800Z,16.40
2023-02-11T10:53:18.790Z,16.30
2023-02-11T10:54:18.780Z,16.90
2023-02-11T10:55:18.759Z,16.00
2023-02-11T10:56:18.739Z,16.40
2023-02-11T10:57:18.732Z,17.20
2023-02-11T10:58:18.716Z,17.00
2023-02-11T10:59:21.367Z,15.90
2023-02-11T11:00:18.758Z,15.80
2023-02-11T11:01:24.599Z,16.20
2023-02-11T11:02:19.842Z,16.50
2023-02-11T11:03:18.650Z,17.00
2023-02-11T11:04:18.675Z,16.70
2023-02-11T11:05:18.670Z,16.70
2023-02-11T11:06:18.677Z,16.00
2023-02-11T11:07:18.712Z,16.70
2023-02-11T11:08:18.662Z,16.80
2023-02-11T11:09:18.658Z,18.20
2023-02-11T11:10:18.556Z,16.00
2023-02-11T11:11:18.550Z,16.50
2023-02-11T11:12:18.696Z,16.20
2023-02-11T11:13:19.415Z,17.00
2023-02-11T11:14:18.580Z,17.30
2023-02-11T11:15:18.495Z,17.40
2023-02-11T11:16:18.543Z,17.40
2023-02-11T11:17:18.456Z,17.50
2023-02-11T11:18:22.433Z,17.40
2023-02-11T11:19:18.754Z,16.90
2023-02-11T11:20:18.427Z,16.50
2023-02-11T11:21:18.413Z,16.90
2023-02-11T11:22:18.574Z,17.30
2023-02-11T11:23:18.385Z,16.70
2023-02-11T11:24:18.381Z,16.90
2023-02-11T11:25:18.374Z,16.70
2023-02-11T11:26:18.351Z,18.00
2023-02-11T11:27:18.325Z,17.30
2023-02-11T11:28:18.544Z,17.10
2023-02-11T11:29:18.323Z,17.20
2023-02-11T11:30:18.300Z,17.40
2023-02-11T11:31:18.427Z,16.70
2023-02-11T11:32:20.281Z,18.30
2023-02-11T11:33:18.263Z,18.90
2023-02-11T11:34:18.237Z,17.20
2023-02-11T11:35:18.412Z,17.70
2023-02-11T11:36:18.261Z,16.60
2023-02-11T11:37:18.218Z,17.80
2023-02-11T11:38:18.212Z,17.00
2023-02-11T11:39:18.172Z,17.30
2023-02-11T11:40:18.190Z,18.60
2023-02-11T11:41:18.203Z,17.40
2023-02-11T11:42:18.158Z,17.20
2023-02-11T11:43:18.118Z,18.70
2023-02-11T11:44:18.109Z,18.00
2023-02-11T11:45:18.084Z,17.30
2023-02-11T11:46:18.123Z,17.00
2023-02-11T11:47:18.233Z,18.50
2023-02-11T11:48:18.062Z,17.00
2023-02-11T11:49:18.039Z,18.60
2023-02-11T11:50:20.174Z,17.10
2023-02-11T11:51:18.016Z,18.80
2023-02-11T11:52:18.025Z,17.80
2023-02-11T11:53:18.001Z,18.60
2023-02-11T11:54:17.981Z,18.80
2023-02-11T11:55:17.960Z,17.50
2023-02-11T11:56:17.942Z,17.90
2023-02-11T11:57:17.947Z,18.40
2023-02-11T11:58:18.109Z,17.30
2023-02-11T11:59:17.899Z,19.00
2023-02-11T12:00:17.898Z,19.50
2023-02-11T12:01:17.882Z,19.40
2023-02-11T12:02:17.906Z,18.20
2023-02-11T12:03:18.099Z,19.90
2023-02-11T12:04:17.828Z,17.70
2023-02-11T12:05:17.820Z,19.60
2023-02-11T12:06:17.818Z,17.70
2023-02-11T12:07:17.799Z,18.60
2023-02-11T12:08:17.979Z,19.00
2023-02-11T12:09:18.081Z,18.20
2023-02-11T12:10:17.757Z,18.80
2023-02-11T12:11:17.748Z,19.10
2023-02-11T12:12:17.736Z,19.40
2023-02-11T12:13:17.737Z,18.40
2023-02-11T12:14:17.876Z,18.60
2023-02-11T12:15:17.726Z,18.30
2023-02-11T12:16:17.717Z,19.60
2023-02-11T12:17:17.664Z,17.80
2023-02-11T12:18:17.655Z,18.50
2023-02-11T12:19:17.639Z,19.00
2023-02-11T12:20:17.803Z,17.40
2023-02-11T12:21:17.805Z,18.90
2023-02-11T12:22:17.594Z,18.50
2023-02-11T12:23:17.605Z,19.60
2023-02-11T12:24:17.616Z,18.10
2023-02-11T12:25:17.565Z,19.00
2023-02-11T12:26:17.568Z,17.50
2023-02-11T12:27:17.712Z,18.30
2023-02-11T12:28:18.502Z,19.90
2023-02-11T12:29:17.518Z,18.80
2023-02-11T12:30:17.489Z,18.70
2023-02-11T12:31:17.595Z,19.10
2023-02-11T12:32:17.555Z,18.60
2023-02-11T12:33:17.461Z,17.80
2023-02-11T12:34:17.482Z,17.70
2023-02-11T12:35:17.449Z,18.30
2023-02-11T12:36:17.430Z,18.80
2023-02-11T12:37:17.589Z,18.50
2023-02-11T12:38:17.390Z,18.90
2023-02-11T12:39:17.381Z,18.90
2023-02-11T12:40:17.809Z,19.20
2023-02-11T12:41:17.375Z,20.10
2023-02-11T12:42:17.360Z,19.70
2023-02-11T12:43:17.354Z,18.60
2023-02-11T12:44:17.345Z,19.90
2023-02-11T12:45:17.328Z,19.70
2023-02-11T12:46:17.453Z,19.00
2023-02-11T12:47:17.311Z,18.80
2023-02-11T12:48:17.300Z,19.30
2023-02-11T12:49:17.283Z,20.10
2023-02-11T12:50:17.242Z,21.00
2023-02-11T12:51:17.220Z,19.30
2023-02-11T12:52:17.199Z,18.50
2023-02-11T12:53:17.293Z,18.70